sensor_id;sensor_type;location;lat;lon;timestamp;P1;durP1;ratioP1;P2;durP2;ratioP2
46266;SDS011;31998;48.798;15.066;2023-07-16T00:01:16;18.50;;;4.17;;
46266;SDS011;31998;48.798;15.066;2023-07-16T00:03:41;6.30;;;3.27;;
46266;SDS011;31998;48.798;15.066;2023-07-16T00:06:06;4.17;;;3.97;;
46266;SDS011;31998;48.798;15.066;2023-07-16T00:08:32;4.80;;;4.50;;
46266;SDS011;31998;48.798;15.066;2023-07-16T00:10:57;4.20;;;4.10;;
46266;SDS011;31998;48.798;15.066;2023-07-16T00:13:22;7.33;;;4.43;;
46266;SDS011;31998;48.798;15.066;2023-07-16T00:15:47;5.27;;;4.03;;
46266;SDS011;31998;48.798;15.066;2023-07-16T00:18:13;4.37;;;4.17;;
46266;SDS011;31998;48.798;15.066;2023-07-16T00:20:38;5.33;;;3.87;;
46266;SDS011;31998;48.798;15.066;2023-07-16T00:23:03;7.27;;;4.20;;
46266;SDS011;31998;48.798;15.066;2023-07-16T00:25:28;5.23;;;4.20;;
46266;SDS011;31998;48.798;15.066;2023-07-16T00:27:54;6.10;;;4.23;;
46266;SDS011;31998;48.798;15.066;2023-07-16T00:30:19;4.27;;;3.70;;
46266;SDS011;31998;48.798;15.066;2023-07-16T00:32:44;3.50;;;3.40;;
46266;SDS011;31998;48.798;15.066;2023-07-16T00:35:09;9.20;;;3.97;;
46266;SDS011;31998;48.798;15.066;2023-07-16T00:37:35;3.37;;;3.27;;
46266;SDS011;31998;48.798;15.066;2023-07-16T00:40:00;3.97;;;3.63;;
46266;SDS011;31998;48.798;15.066;2023-07-16T00:42:25;4.00;;;2.60;;
46266;SDS011;31998;48.798;15.066;2023-07-16T00:44:50;3.53;;;3.33;;
46266;SDS011;31998;48.798;15.066;2023-07-16T00:47:15;4.40;;;4.00;;
46266;SDS011;31998;48.798;15.066;2023-07-16T00:49:41;4.33;;;3.90;;
46266;SDS011;31998;48.798;15.066;2023-07-16T00:52:09;4.13;;;3.83;;
46266;SDS011;31998;48.798;15.066;2023-07-16T00:54:36;3.57;;;3.27;;
46266;SDS011;31998;48.798;15.066;2023-07-16T00:57:02;4.37;;;3.53;;
46266;SDS011;31998;48.798;15.066;2023-07-16T00:59:27;4.07;;;3.67;;
46266;SDS011;31998;48.798;15.066;2023-07-16T01:01:53;4.20;;;4.00;;
46266;SDS011;31998;48.798;15.066;2023-07-16T01:04:18;4.23;;;3.70;;
46266;SDS011;31998;48.798;15.066;2023-07-16T01:06:45;4.40;;;4.10;;
46266;SDS011;31998;48.798;15.066;2023-07-16T01:09:16;4.40;;;4.20;;
46266;SDS011;31998;48.798;15.066;2023-07-16T01:11:44;4.67;;;4.40;;
46266;SDS011;31998;48.798;15.066;2023-07-16T01:14:10;4.50;;;4.30;;
46266;SDS011;31998;48.798;15.066;2023-07-16T01:16:36;9.60;;;4.67;;
46266;SDS011;31998;48.798;15.066;2023-07-16T01:19:02;5.03;;;3.90;;
46266;SDS011;31998;48.798;15.066;2023-07-16T01:21:32;5.87;;;4.60;;
46266;SDS011;31998;48.798;15.066;2023-07-16T01:31:29;4.33;;;3.97;;
46266;SDS011;31998;48.798;15.066;2023-07-16T01:33:55;3.43;;;3.33;;
46266;SDS011;31998;48.798;15.066;2023-07-16T01:36:20;3.20;;;3.10;;
46266;SDS011;31998;48.798;15.066;2023-07-16T01:38:46;3.30;;;3.20;;
46266;SDS011;31998;48.798;15.066;2023-07-16T01:41:12;3.63;;;3.33;;
46266;SDS011;31998;48.798;15.066;2023-07-16T01:43:37;4.20;;;4.00;;
46266;SDS011;31998;48.798;15.066;2023-07-16T01:46:02;5.13;;;4.73;;
46266;SDS011;31998;48.798;15.066;2023-07-16T01:48:29;4.20;;;4.00;;
46266;SDS011;31998;48.798;15.066;2023-07-16T01:50:55;8.93;;;4.80;;
46266;SDS011;31998;48.798;15.066;2023-07-16T01:53:20;4.03;;;3.83;;
46266;SDS011;31998;48.798;15.066;2023-07-16T01:55:45;5.93;;;4.60;;
46266;SDS011;31998;48.798;15.066;2023-07-16T01:58:11;4.47;;;4.20;;
46266;SDS011;31998;48.798;15.066;2023-07-16T02:00:36;3.57;;;3.47;;
46266;SDS011;31998;48.798;15.066;2023-07-16T02:03:02;7.03;;;4.37;;
46266;SDS011;31998;48.798;15.066;2023-07-16T02:05:27;4.87;;;4.47;;
46266;SDS011;31998;48.798;15.066;2023-07-16T02:07:53;4.60;;;4.40;;
46266;SDS011;31998;48.798;15.066;2023-07-16T02:10:18;3.80;;;3.63;;
46266;SDS011;31998;48.798;15.066;2023-07-16T02:12:43;4.80;;;4.50;;
46266;SDS011;31998;48.798;15.066;2023-07-16T02:15:08;3.47;;;3.37;;
46266;SDS011;31998;48.798;15.066;2023-07-16T02:17:34;3.50;;;3.40;;
46266;SDS011;31998;48.798;15.066;2023-07-16T02:19:59;3.33;;;2.73;;
46266;SDS011;31998;48.798;15.066;2023-07-16T02:22:24;4.13;;;3.63;;
46266;SDS011;31998;48.798;15.066;2023-07-16T02:24:50;5.10;;;4.90;;
46266;SDS011;31998;48.798;15.066;2023-07-16T02:27:15;4.87;;;4.67;;
46266;SDS011;31998;48.798;15.066;2023-07-16T02:29:40;8.33;;;4.43;;
46266;SDS011;31998;48.798;15.066;2023-07-16T02:32:05;5.27;;;4.87;;
46266;SDS011;31998;48.798;15.066;2023-07-16T02:34:32;4.87;;;4.53;;
46266;SDS011;31998;48.798;15.066;2023-07-16T02:36:57;5.37;;;5.07;;
46266;SDS011;31998;48.798;15.066;2023-07-16T02:39:23;6.17;;;5.33;;
46266;SDS011;31998;48.798;15.066;2023-07-16T02:41:48;4.93;;;4.40;;
46266;SDS011;31998;48.798;15.066;2023-07-16T02:44:14;4.50;;;4.30;;
46266;SDS011;31998;48.798;15.066;2023-07-16T02:46:39;7.50;;;5.60;;
46266;SDS011;31998;48.798;15.066;2023-07-16T02:49:04;7.10;;;6.47;;
46266;SDS011;31998;48.798;15.066;2023-07-16T02:51:30;7.30;;;6.90;;
46266;SDS011;31998;48.798;15.066;2023-07-16T02:53:55;9.07;;;7.40;;
46266;SDS011;31998;48.798;15.066;2023-07-16T02:56:20;7.47;;;6.77;;
46266;SDS011;31998;48.798;15.066;2023-07-16T02:58:45;6.50;;;6.10;;
46266;SDS011;31998;48.798;15.066;2023-07-16T03:01:11;5.73;;;5.33;;
46266;SDS011;31998;48.798;15.066;2023-07-16T03:03:36;7.40;;;6.80;;
46266;SDS011;31998;48.798;15.066;2023-07-16T03:06:01;6.10;;;5.63;;
46266;SDS011;31998;48.798;15.066;2023-07-16T03:08:27;5.77;;;5.33;;
46266;SDS011;31998;48.798;15.066;2023-07-16T03:10:55;5.83;;;5.53;;
46266;SDS011;31998;48.798;15.066;2023-07-16T03:13:20;7.93;;;5.90;;
46266;SDS011;31998;48.798;15.066;2023-07-16T03:15:46;6.53;;;6.00;;
46266;SDS011;31998;48.798;15.066;2023-07-16T03:18:11;6.80;;;6.30;;
46266;SDS011;31998;48.798;15.066;2023-07-16T03:20:36;8.13;;;6.07;;
46266;SDS011;31998;48.798;15.066;2023-07-16T03:23:01;5.10;;;4.70;;
46266;SDS011;31998;48.798;15.066;2023-07-16T03:25:27;5.53;;;5.10;;
46266;SDS011;31998;48.798;15.066;2023-07-16T03:27:52;6.73;;;4.83;;
46266;SDS011;31998;48.798;15.066;2023-07-16T03:30:17;5.40;;;4.90;;
46266;SDS011;31998;48.798;15.066;2023-07-16T03:32:42;6.03;;;5.23;;
46266;SDS011;31998;48.798;15.066;2023-07-16T03:35:08;5.27;;;4.77;;
46266;SDS011;31998;48.798;15.066;2023-07-16T03:37:33;4.47;;;4.17;;
46266;SDS011;31998;48.798;15.066;2023-07-16T03:40:11;5.17;;;4.77;;
46266;SDS011;31998;48.798;15.066;2023-07-16T03:42:37;10.47;;;5.23;;
46266;SDS011;31998;48.798;15.066;2023-07-16T03:45:02;7.03;;;4.47;;
46266;SDS011;31998;48.798;15.066;2023-07-16T03:47:27;5.50;;;5.20;;
46266;SDS011;31998;48.798;15.066;2023-07-16T03:49:52;5.00;;;4.60;;
46266;SDS011;31998;48.798;15.066;2023-07-16T03:52:18;8.80;;;5.30;;
46266;SDS011;31998;48.798;15.066;2023-07-16T03:54:43;6.00;;;4.63;;
46266;SDS011;31998;48.798;15.066;2023-07-16T03:57:08;5.03;;;4.63;;
46266;SDS011;31998;48.798;15.066;2023-07-16T03:59:33;6.90;;;5.53;;
46266;SDS011;31998;48.798;15.066;2023-07-16T04:01:59;5.03;;;4.60;;
46266;SDS011;31998;48.798;15.066;2023-07-16T04:04:24;5.50;;;4.97;;
46266;SDS011;31998;48.798;15.066;2023-07-16T04:06:49;6.53;;;6.00;;
46266;SDS011;31998;48.798;15.066;2023-07-16T04:09:14;5.67;;;5.27;;
46266;SDS011;31998;48.798;15.066;2023-07-16T04:11:40;5.63;;;4.50;;
46266;SDS011;31998;48.798;15.066;2023-07-16T04:14:05;5.17;;;4.87;;
46266;SDS011;31998;48.798;15.066;2023-07-16T04:16:30;5.27;;;4.77;;
46266;SDS011;31998;48.798;15.066;2023-07-16T04:18:55;5.40;;;5.10;;
46266;SDS011;31998;48.798;15.066;2023-07-16T04:21:21;5.50;;;4.37;;
46266;SDS011;31998;48.798;15.066;2023-07-16T04:23:46;4.93;;;4.73;;
46266;SDS011;31998;48.798;15.066;2023-07-16T04:26:11;5.10;;;4.17;;
46266;SDS011;31998;48.798;15.066;2023-07-16T04:28:36;6.57;;;4.90;;
46266;SDS011;31998;48.798;15.066;2023-07-16T04:31:04;4.40;;;4.20;;
46266;SDS011;31998;48.798;15.066;2023-07-16T04:33:29;4.93;;;4.57;;
46266;SDS011;31998;48.798;15.066;2023-07-16T04:35:54;7.90;;;4.50;;
46266;SDS011;31998;48.798;15.066;2023-07-16T04:38:19;6.83;;;5.73;;
46266;SDS011;31998;48.798;15.066;2023-07-16T04:40:45;5.13;;;4.80;;
46266;SDS011;31998;48.798;15.066;2023-07-16T04:43:10;4.63;;;4.33;;
46266;SDS011;31998;48.798;15.066;2023-07-16T04:45:35;4.17;;;3.87;;
46266;SDS011;31998;48.798;15.066;2023-07-16T04:48:00;5.30;;;4.90;;
46266;SDS011;31998;48.798;15.066;2023-07-16T04:50:26;5.07;;;4.67;;
46266;SDS011;31998;48.798;15.066;2023-07-16T04:52:51;6.20;;;5.07;;
46266;SDS011;31998;48.798;15.066;2023-07-16T04:55:16;4.87;;;4.40;;
46266;SDS011;31998;48.798;15.066;2023-07-16T04:57:41;5.30;;;4.90;;
46266;SDS011;31998;48.798;15.066;2023-07-16T05:00:07;6.80;;;5.10;;
46266;SDS011;31998;48.798;15.066;2023-07-16T05:02:33;6.50;;;3.83;;
46266;SDS011;31998;48.798;15.066;2023-07-16T05:04:58;6.93;;;4.53;;
46266;SDS011;31998;48.798;15.066;2023-07-16T05:07:23;5.63;;;5.13;;
46266;SDS011;31998;48.798;15.066;2023-07-16T05:09:48;6.23;;;4.40;;
46266;SDS011;31998;48.798;15.066;2023-07-16T05:12:14;4.10;;;3.63;;
46266;SDS011;31998;48.798;15.066;2023-07-16T05:14:43;3.50;;;3.30;;
46266;SDS011;31998;48.798;15.066;2023-07-16T05:17:09;4.40;;;3.70;;
46266;SDS011;31998;48.798;15.066;2023-07-16T05:19:34;3.73;;;3.40;;
46266;SDS011;31998;48.798;15.066;2023-07-16T05:21:59;3.40;;;2.63;;
46266;SDS011;31998;48.798;15.066;2023-07-16T05:24:25;5.33;;;2.97;;
46266;SDS011;31998;48.798;15.066;2023-07-16T05:26:50;5.90;;;2.93;;
46266;SDS011;31998;48.798;15.066;2023-07-16T05:29:16;2.40;;;2.20;;
46266;SDS011;31998;48.798;15.066;2023-07-16T05:31:42;2.10;;;1.90;;
46266;SDS011;31998;48.798;15.066;2023-07-16T05:34:07;3.73;;;3.13;;
46266;SDS011;31998;48.798;15.066;2023-07-16T05:36:32;1.80;;;1.70;;
46266;SDS011;31998;48.798;15.066;2023-07-16T05:38:58;1.90;;;1.80;;
46266;SDS011;31998;48.798;15.066;2023-07-16T05:41:23;2.53;;;2.33;;
46266;SDS011;31998;48.798;15.066;2023-07-16T05:43:48;2.50;;;2.30;;
46266;SDS011;31998;48.798;15.066;2023-07-16T05:46:14;2.47;;;2.37;;
46266;SDS011;31998;48.798;15.066;2023-07-16T05:48:39;4.17;;;2.10;;
46266;SDS011;31998;48.798;15.066;2023-07-16T05:51:04;1.93;;;1.83;;
46266;SDS011;31998;48.798;15.066;2023-07-16T05:53:29;2.40;;;2.17;;
46266;SDS011;31998;48.798;15.066;2023-07-16T05:55:55;2.13;;;2.03;;
46266;SDS011;31998;48.798;15.066;2023-07-16T05:58:20;2.00;;;1.87;;
46266;SDS011;31998;48.798;15.066;2023-07-16T06:00:45;3.63;;;1.80;;
46266;SDS011;31998;48.798;15.066;2023-07-16T06:03:11;2.47;;;2.07;;
46266;SDS011;31998;48.798;15.066;2023-07-16T06:05:36;1.93;;;1.93;;
46266;SDS011;31998;48.798;15.066;2023-07-16T06:08:02;2.63;;;1.70;;
46266;SDS011;31998;48.798;15.066;2023-07-16T06:10:27;3.60;;;1.93;;
46266;SDS011;31998;48.798;15.066;2023-07-16T06:12:52;2.13;;;1.93;;
46266;SDS011;31998;48.798;15.066;2023-07-16T06:15:18;12.50;;;1.80;;
46266;SDS011;31998;48.798;15.066;2023-07-16T06:17:43;1.73;;;1.73;;
46266;SDS011;31998;48.798;15.066;2023-07-16T06:20:08;1.80;;;1.80;;
46266;SDS011;31998;48.798;15.066;2023-07-16T06:22:34;5.37;;;1.60;;
46266;SDS011;31998;48.798;15.066;2023-07-16T06:24:59;3.53;;;2.00;;
46266;SDS011;31998;48.798;15.066;2023-07-16T06:27:25;1.60;;;1.50;;
46266;SDS011;31998;48.798;15.066;2023-07-16T06:29:50;3.77;;;2.40;;
46266;SDS011;31998;48.798;15.066;2023-07-16T06:32:15;5.63;;;2.23;;
46266;SDS011;31998;48.798;15.066;2023-07-16T06:34:40;7.13;;;2.37;;
46266;SDS011;31998;48.798;15.066;2023-07-16T06:37:06;4.07;;;1.70;;
46266;SDS011;31998;48.798;15.066;2023-07-16T06:39:31;2.27;;;2.20;;
46266;SDS011;31998;48.798;15.066;2023-07-16T06:41:57;2.20;;;1.80;;
46266;SDS011;31998;48.798;15.066;2023-07-16T06:44:22;1.90;;;1.80;;
46266;SDS011;31998;48.798;15.066;2023-07-16T06:46:47;3.00;;;2.80;;
46266;SDS011;31998;48.798;15.066;2023-07-16T06:49:13;2.53;;;2.43;;
46266;SDS011;31998;48.798;15.066;2023-07-16T06:51:38;2.17;;;2.10;;
46266;SDS011;31998;48.798;15.066;2023-07-16T06:54:03;2.13;;;2.03;;
46266;SDS011;31998;48.798;15.066;2023-07-16T06:56:28;1.93;;;1.93;;
46266;SDS011;31998;48.798;15.066;2023-07-16T06:58:54;2.40;;;2.30;;
46266;SDS011;31998;48.798;15.066;2023-07-16T07:01:19;2.53;;;2.13;;
46266;SDS011;31998;48.798;15.066;2023-07-16T07:03:44;2.50;;;2.40;;
46266;SDS011;31998;48.798;15.066;2023-07-16T07:06:09;2.07;;;1.97;;
46266;SDS011;31998;48.798;15.066;2023-07-16T07:08:36;2.20;;;2.10;;
46266;SDS011;31998;48.798;15.066;2023-07-16T07:11:01;2.33;;;2.23;;
46266;SDS011;31998;48.798;15.066;2023-07-16T07:13:26;2.30;;;2.20;;
46266;SDS011;31998;48.798;15.066;2023-07-16T07:15:51;2.17;;;2.07;;
46266;SDS011;31998;48.798;15.066;2023-07-16T07:18:17;2.50;;;2.20;;
46266;SDS011;31998;48.798;15.066;2023-07-16T07:20:42;2.20;;;2.10;;
46266;SDS011;31998;48.798;15.066;2023-07-16T07:23:07;2.50;;;2.40;;
46266;SDS011;31998;48.798;15.066;2023-07-16T07:25:32;2.50;;;2.50;;
46266;SDS011;31998;48.798;15.066;2023-07-16T07:27:58;8.53;;;2.10;;
46266;SDS011;31998;48.798;15.066;2023-07-16T07:30:23;2.47;;;2.13;;
46266;SDS011;31998;48.798;15.066;2023-07-16T07:32:48;2.57;;;2.10;;
46266;SDS011;31998;48.798;15.066;2023-07-16T07:35:14;3.33;;;2.47;;
46266;SDS011;31998;48.798;15.066;2023-07-16T07:37:39;2.33;;;2.23;;
46266;SDS011;31998;48.798;15.066;2023-07-16T07:40:04;2.87;;;2.67;;
46266;SDS011;31998;48.798;15.066;2023-07-16T07:42:30;2.50;;;2.40;;
46266;SDS011;31998;48.798;15.066;2023-07-16T07:44:55;2.47;;;2.33;;
46266;SDS011;31998;48.798;15.066;2023-07-16T07:47:20;2.37;;;2.17;;
46266;SDS011;31998;48.798;15.066;2023-07-16T07:49:46;2.23;;;2.23;;
46266;SDS011;31998;48.798;15.066;2023-07-16T07:52:11;2.40;;;2.20;;
46266;SDS011;31998;48.798;15.066;2023-07-16T07:54:36;2.70;;;2.23;;
46266;SDS011;31998;48.798;15.066;2023-07-16T07:57:02;2.50;;;2.40;;
46266;SDS011;31998;48.798;15.066;2023-07-16T07:59:30;2.40;;;2.30;;
46266;SDS011;31998;48.798;15.066;2023-07-16T08:01:55;2.87;;;2.53;;
46266;SDS011;31998;48.798;15.066;2023-07-16T08:04:21;2.20;;;2.10;;
46266;SDS011;31998;48.798;15.066;2023-07-16T08:06:46;6.03;;;2.20;;
46266;SDS011;31998;48.798;15.066;2023-07-16T08:09:11;2.10;;;2.00;;
46266;SDS011;31998;48.798;15.066;2023-07-16T08:11:36;2.70;;;2.57;;
46266;SDS011;31998;48.798;15.066;2023-07-16T08:14:02;4.33;;;2.30;;
46266;SDS011;31998;48.798;15.066;2023-07-16T08:16:27;2.50;;;2.40;;
46266;SDS011;31998;48.798;15.066;2023-07-16T08:18:52;2.70;;;2.60;;
46266;SDS011;31998;48.798;15.066;2023-07-16T08:21:18;3.40;;;2.60;;
46266;SDS011;31998;48.798;15.066;2023-07-16T08:23:46;2.83;;;2.63;;
46266;SDS011;31998;48.798;15.066;2023-07-16T08:26:11;1.97;;;1.83;;
46266;SDS011;31998;48.798;15.066;2023-07-16T08:28:37;1.77;;;1.67;;
46266;SDS011;31998;48.798;15.066;2023-07-16T08:31:03;7.03;;;2.57;;
46266;SDS011;31998;48.798;15.066;2023-07-16T08:33:28;2.07;;;1.97;;
46266;SDS011;31998;48.798;15.066;2023-07-16T08:35:53;2.30;;;2.07;;
46266;SDS011;31998;48.798;15.066;2023-07-16T08:38:18;1.90;;;1.80;;
46266;SDS011;31998;48.798;15.066;2023-07-16T08:40:44;2.23;;;2.13;;
46266;SDS011;31998;48.798;15.066;2023-07-16T08:43:11;2.20;;;2.10;;
46266;SDS011;31998;48.798;15.066;2023-07-16T08:45:40;2.30;;;2.10;;
46266;SDS011;31998;48.798;15.066;2023-07-16T08:48:10;1.73;;;1.60;;
46266;SDS011;31998;48.798;15.066;2023-07-16T08:50:35;1.80;;;1.70;;
46266;SDS011;31998;48.798;15.066;2023-07-16T08:53:04;2.57;;;2.37;;
46266;SDS011;31998;48.798;15.066;2023-07-16T08:55:30;2.10;;;1.90;;
46266;SDS011;31998;48.798;15.066;2023-07-16T08:57:55;1.70;;;1.70;;
46266;SDS011;31998;48.798;15.066;2023-07-16T09:00:21;2.03;;;2.03;;
46266;SDS011;31998;48.798;15.066;2023-07-16T09:02:48;2.83;;;1.50;;
46266;SDS011;31998;48.798;15.066;2023-07-16T09:05:13;1.57;;;1.50;;
46266;SDS011;31998;48.798;15.066;2023-07-16T09:07:39;1.77;;;1.67;;
46266;SDS011;31998;48.798;15.066;2023-07-16T09:10:04;1.77;;;1.77;;
46266;SDS011;31998;48.798;15.066;2023-07-16T09:12:30;2.90;;;2.23;;
46266;SDS011;31998;48.798;15.066;2023-07-16T09:14:55;4.00;;;1.73;;
46266;SDS011;31998;48.798;15.066;2023-07-16T09:17:21;1.60;;;1.60;;
46266;SDS011;31998;48.798;15.066;2023-07-16T09:19:47;2.97;;;1.90;;
46266;SDS011;31998;48.798;15.066;2023-07-16T09:22:13;1.83;;;1.73;;
46266;SDS011;31998;48.798;15.066;2023-07-16T09:24:38;1.77;;;1.73;;
46266;SDS011;31998;48.798;15.066;2023-07-16T09:27:03;2.90;;;1.93;;
46266;SDS011;31998;48.798;15.066;2023-07-16T09:29:29;2.03;;;1.90;;
46266;SDS011;31998;48.798;15.066;2023-07-16T09:31:55;1.70;;;1.70;;
46266;SDS011;31998;48.798;15.066;2023-07-16T09:34:20;1.63;;;1.63;;
46266;SDS011;31998;48.798;15.066;2023-07-16T09:36:49;2.27;;;2.17;;
46266;SDS011;31998;48.798;15.066;2023-07-16T09:39:17;1.60;;;1.50;;
46266;SDS011;31998;48.798;15.066;2023-07-16T09:41:44;1.73;;;1.70;;
46266;SDS011;31998;48.798;15.066;2023-07-16T09:44:10;2.00;;;1.40;;
46266;SDS011;31998;48.798;15.066;2023-07-16T09:46:35;1.93;;;1.83;;
46266;SDS011;31998;48.798;15.066;2023-07-16T09:49:01;2.13;;;2.03;;
46266;SDS011;31998;48.798;15.066;2023-07-16T09:51:26;1.80;;;1.70;;
46266;SDS011;31998;48.798;15.066;2023-07-16T09:53:53;2.23;;;2.00;;
46266;SDS011;31998;48.798;15.066;2023-07-16T09:56:19;1.60;;;1.50;;
46266;SDS011;31998;48.798;15.066;2023-07-16T09:58:44;1.73;;;1.73;;
46266;SDS011;31998;48.798;15.066;2023-07-16T10:01:10;1.40;;;1.30;;
46266;SDS011;31998;48.798;15.066;2023-07-16T10:03:36;1.63;;;1.63;;
46266;SDS011;31998;48.798;15.066;2023-07-16T10:06:07;5.43;;;1.33;;
46266;SDS011;31998;48.798;15.066;2023-07-16T10:08:33;1.23;;;1.23;;
46266;SDS011;31998;48.798;15.066;2023-07-16T10:11:01;1.27;;;1.27;;
46266;SDS011;31998;48.798;15.066;2023-07-16T10:13:27;1.40;;;1.20;;
46266;SDS011;31998;48.798;15.066;2023-07-16T10:15:58;1.20;;;1.20;;
46266;SDS011;31998;48.798;15.066;2023-07-16T10:18:24;1.40;;;1.40;;
46266;SDS011;31998;48.798;15.066;2023-07-16T10:20:50;4.73;;;1.43;;
46266;SDS011;31998;48.798;15.066;2023-07-16T10:23:16;1.53;;;1.27;;
46266;SDS011;31998;48.798;15.066;2023-07-16T10:25:58;3.13;;;1.60;;
46266;SDS011;31998;48.798;15.066;2023-07-16T10:28:24;1.33;;;1.33;;
46266;SDS011;31998;48.798;15.066;2023-07-16T10:30:49;1.30;;;1.30;;
46266;SDS011;31998;48.798;15.066;2023-07-16T10:33:15;1.33;;;1.33;;
46266;SDS011;31998;48.798;15.066;2023-07-16T10:35:40;1.53;;;1.43;;
46266;SDS011;31998;48.798;15.066;2023-07-16T10:38:06;1.30;;;1.30;;
46266;SDS011;31998;48.798;15.066;2023-07-16T10:40:31;1.20;;;1.20;;
46266;SDS011;31998;48.798;15.066;2023-07-16T10:42:56;2.10;;;1.13;;
46266;SDS011;31998;48.798;15.066;2023-07-16T10:45:21;1.63;;;1.53;;
46266;SDS011;31998;48.798;15.066;2023-07-16T10:47:51;1.70;;;1.43;;
46266;SDS011;31998;48.798;15.066;2023-07-16T10:50:18;1.10;;;1.10;;
46266;SDS011;31998;48.798;15.066;2023-07-16T10:52:43;1.13;;;1.13;;
46266;SDS011;31998;48.798;15.066;2023-07-16T10:55:09;1.57;;;1.57;;
46266;SDS011;31998;48.798;15.066;2023-07-16T10:57:34;0.80;;;0.80;;
46266;SDS011;31998;48.798;15.066;2023-07-16T11:00:00;2.00;;;1.17;;
46266;SDS011;31998;48.798;15.066;2023-07-16T11:02:25;1.23;;;1.23;;
46266;SDS011;31998;48.798;15.066;2023-07-16T11:04:51;2.40;;;1.43;;
46266;SDS011;31998;48.798;15.066;2023-07-16T11:07:19;1.30;;;1.20;;
46266;SDS011;31998;48.798;15.066;2023-07-16T11:09:46;1.30;;;1.30;;
46266;SDS011;31998;48.798;15.066;2023-07-16T11:12:13;1.33;;;1.00;;
46266;SDS011;31998;48.798;15.066;2023-07-16T11:14:41;1.30;;;1.30;;
46266;SDS011;31998;48.798;15.066;2023-07-16T11:17:07;1.33;;;1.33;;
46266;SDS011;31998;48.798;15.066;2023-07-16T11:19:36;1.43;;;1.33;;
46266;SDS011;31998;48.798;15.066;2023-07-16T11:22:02;1.40;;;1.40;;
46266;SDS011;31998;48.798;15.066;2023-07-16T11:24:27;4.10;;;1.30;;
46266;SDS011;31998;48.798;15.066;2023-07-16T11:26:56;1.60;;;1.50;;
46266;SDS011;31998;48.798;15.066;2023-07-16T11:29:24;1.33;;;1.33;;
46266;SDS011;31998;48.798;15.066;2023-07-16T11:31:50;1.20;;;1.20;;
46266;SDS011;31998;48.798;15.066;2023-07-16T11:34:15;3.50;;;1.50;;
46266;SDS011;31998;48.798;15.066;2023-07-16T11:36:41;1.70;;;1.67;;
46266;SDS011;31998;48.798;15.066;2023-07-16T11:39:06;1.10;;;1.10;;
46266;SDS011;31998;48.798;15.066;2023-07-16T11:41:32;1.80;;;1.70;;
46266;SDS011;31998;48.798;15.066;2023-07-16T11:44:00;2.37;;;2.27;;
46266;SDS011;31998;48.798;15.066;2023-07-16T11:46:30;1.40;;;1.40;;
46266;SDS011;31998;48.798;15.066;2023-07-16T11:48:55;1.50;;;1.40;;
46266;SDS011;31998;48.798;15.066;2023-07-16T11:51:20;1.60;;;1.53;;
46266;SDS011;31998;48.798;15.066;2023-07-16T11:53:45;1.37;;;1.37;;
46266;SDS011;31998;48.798;15.066;2023-07-16T11:56:11;1.70;;;1.70;;
46266;SDS011;31998;48.798;15.066;2023-07-16T11:58:36;1.50;;;1.37;;
46266;SDS011;31998;48.798;15.066;2023-07-16T12:01:01;1.40;;;1.40;;
46266;SDS011;31998;48.798;15.066;2023-07-16T12:03:27;1.83;;;1.73;;
46266;SDS011;31998;48.798;15.066;2023-07-16T12:05:52;1.90;;;1.90;;
46266;SDS011;31998;48.798;15.066;2023-07-16T12:08:18;1.30;;;1.30;;
46266;SDS011;31998;48.798;15.066;2023-07-16T12:10:43;1.80;;;1.70;;
46266;SDS011;31998;48.798;15.066;2023-07-16T12:13:08;1.80;;;1.70;;
46266;SDS011;31998;48.798;15.066;2023-07-16T12:15:33;1.37;;;1.27;;
46266;SDS011;31998;48.798;15.066;2023-07-16T12:17:59;1.40;;;1.30;;
46266;SDS011;31998;48.798;15.066;2023-07-16T12:20:24;1.20;;;1.20;;
46266;SDS011;31998;48.798;15.066;2023-07-16T12:22:49;2.03;;;1.80;;
46266;SDS011;31998;48.798;15.066;2023-07-16T12:25:15;1.40;;;1.40;;
46266;SDS011;31998;48.798;15.066;2023-07-16T12:27:41;2.60;;;1.73;;
46266;SDS011;31998;48.798;15.066;2023-07-16T12:30:06;2.70;;;1.57;;
46266;SDS011;31998;48.798;15.066;2023-07-16T12:32:32;1.60;;;1.50;;
46266;SDS011;31998;48.798;15.066;2023-07-16T12:34:58;1.40;;;1.40;;
46266;SDS011;31998;48.798;15.066;2023-07-16T12:37:25;1.10;;;1.10;;
46266;SDS011;31998;48.798;15.066;2023-07-16T12:39:50;1.60;;;1.50;;
46266;SDS011;31998;48.798;15.066;2023-07-16T12:42:15;1.33;;;1.33;;
46266;SDS011;31998;48.798;15.066;2023-07-16T12:44:41;1.30;;;1.30;;
46266;SDS011;31998;48.798;15.066;2023-07-16T12:47:06;1.40;;;1.40;;
46266;SDS011;31998;48.798;15.066;2023-07-16T12:49:33;1.70;;;1.60;;
46266;SDS011;31998;48.798;15.066;2023-07-16T12:51:58;1.27;;;1.17;;
46266;SDS011;31998;48.798;15.066;2023-07-16T12:54:23;1.53;;;1.43;;
46266;SDS011;31998;48.798;15.066;2023-07-16T12:56:49;3.13;;;2.00;;
46266;SDS011;31998;48.798;15.066;2023-07-16T12:59:14;1.73;;;1.50;;
46266;SDS011;31998;48.798;15.066;2023-07-16T13:01:39;1.70;;;1.60;;
46266;SDS011;31998;48.798;15.066;2023-07-16T13:04:04;2.67;;;1.40;;
46266;SDS011;31998;48.798;15.066;2023-07-16T13:06:30;1.20;;;1.20;;
46266;SDS011;31998;48.798;15.066;2023-07-16T13:08:55;1.70;;;1.70;;
46266;SDS011;31998;48.798;15.066;2023-07-16T13:11:20;2.87;;;1.50;;
46266;SDS011;31998;48.798;15.066;2023-07-16T13:13:46;1.73;;;1.73;;
46266;SDS011;31998;48.798;15.066;2023-07-16T13:16:11;1.90;;;1.90;;
46266;SDS011;31998;48.798;15.066;2023-07-16T13:18:37;1.20;;;1.20;;
46266;SDS011;31998;48.798;15.066;2023-07-16T13:21:02;1.93;;;1.87;;
46266;SDS011;31998;48.798;15.066;2023-07-16T13:23:28;3.30;;;1.50;;
46266;SDS011;31998;48.798;15.066;2023-07-16T13:25:53;1.33;;;1.23;;
46266;SDS011;31998;48.798;15.066;2023-07-16T13:28:19;1.77;;;1.67;;
46266;SDS011;31998;48.798;15.066;2023-07-16T13:30:45;2.07;;;1.80;;
46266;SDS011;31998;48.798;15.066;2023-07-16T13:33:10;1.07;;;1.07;;
46266;SDS011;31998;48.798;15.066;2023-07-16T13:35:35;1.60;;;1.57;;
46266;SDS011;31998;48.798;15.066;2023-07-16T13:38:00;1.77;;;1.37;;
46266;SDS011;31998;48.798;15.066;2023-07-16T13:40:26;1.73;;;1.50;;
46266;SDS011;31998;48.798;15.066;2023-07-16T13:42:52;7.00;;;1.53;;
46266;SDS011;31998;48.798;15.066;2023-07-16T13:45:18;1.80;;;1.70;;
46266;SDS011;31998;48.798;15.066;2023-07-16T13:47:44;1.50;;;1.50;;
46266;SDS011;31998;48.798;15.066;2023-07-16T13:50:09;1.50;;;1.50;;
46266;SDS011;31998;48.798;15.066;2023-07-16T13:52:35;2.00;;;1.83;;
46266;SDS011;31998;48.798;15.066;2023-07-16T13:55:00;1.30;;;1.30;;
46266;SDS011;31998;48.798;15.066;2023-07-16T13:57:26;1.30;;;1.30;;
46266;SDS011;31998;48.798;15.066;2023-07-16T13:59:51;1.63;;;1.63;;
46266;SDS011;31998;48.798;15.066;2023-07-16T14:02:17;2.30;;;2.20;;
46266;SDS011;31998;48.798;15.066;2023-07-16T14:04:42;1.50;;;1.50;;
46266;SDS011;31998;48.798;15.066;2023-07-16T14:07:07;2.67;;;1.60;;
46266;SDS011;31998;48.798;15.066;2023-07-16T14:09:32;1.80;;;1.70;;
46266;SDS011;31998;48.798;15.066;2023-07-16T14:11:58;1.80;;;1.80;;
46266;SDS011;31998;48.798;15.066;2023-07-16T14:14:23;1.50;;;1.50;;
46266;SDS011;31998;48.798;15.066;2023-07-16T14:16:48;1.93;;;1.83;;
46266;SDS011;31998;48.798;15.066;2023-07-16T14:19:13;1.90;;;1.90;;
46266;SDS011;31998;48.798;15.066;2023-07-16T14:21:39;1.40;;;1.40;;
46266;SDS011;31998;48.798;15.066;2023-07-16T14:24:04;2.10;;;1.43;;
46266;SDS011;31998;48.798;15.066;2023-07-16T14:26:29;1.80;;;1.70;;
46266;SDS011;31998;48.798;15.066;2023-07-16T14:28:55;1.93;;;1.83;;
46266;SDS011;31998;48.798;15.066;2023-07-16T14:31:20;3.23;;;1.40;;